Arnold Palmer Regional Airport
KLBE : now visible

Airfield :











YOU CAN JOIN US ON...

 
LOGIN :

Register | Disclaimer

   EN    FR    IT 

 









Legend :    VFR   Marginal VFR   IFR   Intensive IFR   Very Intensive IFR
Visi :
Ceiling :
>= 8 km
>= 3000ft
5 to 8 km
1000 to 3000 ft
1500m to 5 km
500 to 1000 ft
800 to 1500m
200 to 500 ft
< 800m
< 200 ft
Symbols :   Thunderstorms  Fog  Heavy snow  Heavy precipitations  Wind > 20 kt






- Airport Elevation : 1199 ft
- IATA code : LBE


KLBE - Arnold Palmer Regional

CURRENT METAR :
  • 030835Z AUTO 00000KT 10SM SCT031 BKN040 OVC050 19/18 A3004 RMK AO2

EXPIRED METARs :
  • 030815Z AUTO 00000KT 10SM SCT034 BKN048 19/18 A3004 RMK AO2
  • 030755Z AUTO 00000KT 10SM FEW031 SCT036 OVC047 19/18 A3004 RMK AO2
  • 030735Z AUTO 00000KT 10SM SCT030 BKN040 OVC050 19/18 A3004 RMK AO2
  • 030715Z AUTO 00000KT 10SM FEW039 OVC049 20/18 A3004 RMK AO2
  • 030655Z AUTO 00000KT 10SM SCT034 SCT039 OVC048 20/18 A3004 RMK AO2
  • 030635Z AUTO 00000KT 10SM FEW033 SCT040 OVC049 20/18 A3004 RMK AO2
  • 030615Z AUTO 18004KT 10SM FEW031 OVC041 20/18 A3004 RMK AO2
  • 030555Z AUTO 19004KT 10SM FEW021 SCT031 OVC041 20/18 A3004 RMK AO2
  • 030535Z AUTO 21004KT 10SM BKN022 OVC031 20/18 A3004 RMK AO2

TAF KLBE
Valid from the 03 at 07:00 until the 04 at 06:00 UTC


030702Z 0307/0406 00000KT P6SM BKN035
FM031200 20003KT P6SM BKN070
FM031500 23006KT P6SM BKN040
FM040000 17003KT P6SM BKN100
KZOB FIR / North America



MET'MAP, your aeronautical weather chart ! - Copyright ORBIFLY December 2007 - Disclaimer

ORBIFLY MET'MAP TEAM :

Programming & Development : Alexandra Zaïnal
Concept & original design : Baudouin d'Aumeries
Assistance for programming : Marc-Olivier Méhu
Technical & hardware support : Manuel Goepfert

Contact : metmap@orbifly.com




SOURCES & CREDITS :

   NOAA       Earth
Advisory